createdAt,value
2022-12-15T00:01:40.388Z,56.22
2022-12-15T00:04:25.142Z,56.06
2022-12-15T00:07:09.825Z,55.96
2022-12-15T00:09:54.780Z,56.24
2022-12-15T00:12:39.831Z,56.17
2022-12-15T00:15:24.996Z,56.27
2022-12-15T00:18:10.800Z,56.48
2022-12-15T00:20:56.378Z,56.38
2022-12-15T00:23:41.252Z,56.65
2022-12-15T00:26:26.090Z,56.72
2022-12-15T00:29:11.364Z,56.64
2022-12-15T00:31:56.163Z,56.56
2022-12-15T00:34:41.135Z,56.50
2022-12-15T00:37:25.969Z,56.18
2022-12-15T00:39:59.419Z,56.31
2022-12-15T00:42:26.562Z,56.10
2022-12-15T00:44:53.247Z,56.26
2022-12-15T00:47:19.979Z,56.03
2022-12-15T00:50:05.126Z,55.86
2022-12-15T00:52:49.804Z,56.08
2022-12-15T00:55:34.783Z,56.41
2022-12-15T00:58:19.554Z,56.13
2022-12-15T01:01:04.378Z,56.40
2022-12-15T01:03:49.267Z,56.34
2022-12-15T01:06:35.724Z,56.26
2022-12-15T01:09:21.775Z,56.35
2022-12-15T01:12:06.752Z,56.31
2022-12-15T01:14:51.813Z,56.54
2022-12-15T01:17:36.802Z,56.68
2022-12-15T01:20:19.221Z,56.90
2022-12-15T01:22:47.030Z,56.35
2022-12-15T01:25:14.335Z,56.80
2022-12-15T01:27:41.028Z,57.09
2022-12-15T01:30:08.495Z,56.78
2022-12-15T01:32:35.047Z,57.25
2022-12-15T01:35:01.626Z,57.10
2022-12-15T01:37:28.305Z,57.24
2022-12-15T01:40:13.469Z,57.17
2022-12-15T01:42:40.060Z,57.22
2022-12-15T01:45:24.969Z,57.38
2022-12-15T01:47:51.945Z,57.48
2022-12-15T01:50:18.596Z,57.08
2022-12-15T01:52:45.420Z,57.12
2022-12-15T01:55:16.640Z,56.36
2022-12-15T01:57:43.791Z,56.57
2022-12-15T02:00:11.047Z,56.30
2022-12-15T02:02:40.336Z,56.69
2022-12-15T02:05:07.998Z,56.57
2022-12-15T02:07:34.799Z,56.63
2022-12-15T02:10:02.896Z,56.73
2022-12-15T02:12:42.998Z,57.20
2022-12-15T02:15:09.609Z,57.28
2022-12-15T02:17:36.158Z,57.39
2022-12-15T02:20:26.146Z,56.89
2022-12-15T02:23:06.623Z,56.51
2022-12-15T02:25:38.267Z,56.81
2022-12-15T02:28:06.867Z,57.20
2022-12-15T02:30:41.366Z,57.04
2022-12-15T02:33:08.151Z,56.63
2022-12-15T02:35:55.994Z,56.50
2022-12-15T02:38:33.634Z,56.58
2022-12-15T02:41:01.139Z,56.28
2022-12-15T02:43:29.863Z,56.16
2022-12-15T02:46:09.100Z,56.28
2022-12-15T02:48:44.731Z,56.84
2022-12-15T02:51:14.075Z,57.00
2022-12-15T02:54:01.364Z,56.92
2022-12-15T02:56:47.988Z,57.21
2022-12-15T02:59:46.568Z,57.42
2022-12-15T03:02:13.616Z,57.08
2022-12-15T03:04:42.677Z,56.74
2022-12-15T03:07:10.153Z,56.51
2022-12-15T03:09:36.624Z,56.47
2022-12-15T03:12:03.293Z,56.45
2022-12-15T03:14:29.911Z,56.79
2022-12-15T03:16:56.585Z,56.50
2022-12-15T03:19:23.269Z,56.97
2022-12-15T03:21:49.661Z,56.74
2022-12-15T03:24:15.967Z,56.52
2022-12-15T03:26:43.624Z,56.55
2022-12-15T03:29:10.039Z,57.04
2022-12-15T03:31:36.598Z,57.28
2022-12-15T03:34:03.098Z,56.90
2022-12-15T03:36:29.606Z,56.72
2022-12-15T03:38:56.096Z,56.67
2022-12-15T03:41:22.563Z,56.43
2022-12-15T03:43:49.834Z,56.34
2022-12-15T03:46:16.574Z,56.66
2022-12-15T03:48:43.201Z,56.76
2022-12-15T03:51:09.555Z,56.94
2022-12-15T03:53:36.058Z,57.29
2022-12-15T03:56:02.577Z,57.71
2022-12-15T03:58:29.107Z,57.76
2022-12-15T04:00:56.163Z,58.05
2022-12-15T04:03:22.762Z,58.06
2022-12-15T04:05:49.510Z,57.92
2022-12-15T04:08:16.094Z,58.01
2022-12-15T04:10:43.656Z,58.27
2022-12-15T04:13:11.242Z,58.46
2022-12-15T04:15:38.551Z,58.08
2022-12-15T04:18:06.395Z,57.29
2022-12-15T04:20:33.358Z,57.11
2022-12-15T04:23:00.299Z,56.94
2022-12-15T04:25:46.042Z,57.26
2022-12-15T04:28:31.147Z,57.52
2022-12-15T04:31:17.749Z,57.91
2022-12-15T04:34:05.271Z,58.08
2022-12-15T04:36:51.437Z,57.66
2022-12-15T04:39:36.447Z,57.74
2022-12-15T04:42:21.723Z,58.12
2022-12-15T04:45:08.258Z,58.91
2022-12-15T04:47:53.195Z,58.83
2022-12-15T04:50:38.081Z,58.82
2022-12-15T04:53:30.380Z,58.80
2022-12-15T04:56:18.712Z,59.10
2022-12-15T04:59:04.420Z,58.40
2022-12-15T05:01:49.378Z,58.06
2022-12-15T05:04:34.657Z,58.15
2022-12-15T05:07:19.378Z,57.59
2022-12-15T05:10:06.225Z,57.65
2022-12-15T05:12:53.159Z,57.58
2022-12-15T05:15:38.262Z,58.05
2022-12-15T05:18:23.649Z,58.21
2022-12-15T05:21:08.698Z,58.59
2022-12-15T05:23:53.540Z,58.26
2022-12-15T05:26:38.490Z,57.82
2022-12-15T05:29:23.305Z,57.68
2022-12-15T05:31:52.495Z,58.11
2022-12-15T05:34:19.837Z,58.55
2022-12-15T05:36:46.222Z,58.15
2022-12-15T05:39:12.511Z,58.31
2022-12-15T05:41:39.107Z,58.68
2022-12-15T05:44:05.807Z,58.70
2022-12-15T05:46:32.304Z,58.72
2022-12-15T05:48:58.738Z,58.81
2022-12-15T05:51:25.232Z,58.40
2022-12-15T05:53:51.597Z,58.68
2022-12-15T05:56:17.971Z,58.94
2022-12-15T05:58:45.676Z,59.43
2022-12-15T06:01:14.125Z,59.22
2022-12-15T06:03:41.282Z,59.92
2022-12-15T06:06:08.589Z,59.91
2022-12-15T06:08:36.563Z,59.53
2022-12-15T06:11:03.253Z,59.20
2022-12-15T06:13:34.853Z,59.07
2022-12-15T06:16:02.764Z,58.94
2022-12-15T06:18:30.495Z,59.05
2022-12-15T06:21:05.133Z,59.52
2022-12-15T06:23:33.334Z,59.84
2022-12-15T06:26:01.170Z,59.99
2022-12-15T06:28:27.566Z,60.14
2022-12-15T06:30:55.323Z,60.87
2022-12-15T06:33:22.627Z,60.58
2022-12-15T06:35:49.609Z,61.38
2022-12-15T06:38:16.000Z,60.89
2022-12-15T06:40:42.396Z,60.27
2022-12-15T06:43:08.829Z,59.75
2022-12-15T06:45:35.973Z,60.43
2022-12-15T06:48:02.275Z,60.31
2022-12-15T06:50:29.138Z,60.74
2022-12-15T06:52:55.485Z,61.66
2022-12-15T06:55:21.825Z,61.51
2022-12-15T06:57:48.776Z,61.52
2022-12-15T07:00:15.799Z,61.70
2022-12-15T07:02:42.569Z,61.54
2022-12-15T07:05:09.352Z,61.00
2022-12-15T07:07:35.798Z,60.28
2022-12-15T07:10:02.164Z,60.48
2022-12-15T07:12:28.453Z,60.18
2022-12-15T07:14:54.735Z,59.70
2022-12-15T07:17:21.016Z,59.22
2022-12-15T07:19:47.425Z,58.98
2022-12-15T07:22:13.726Z,58.62
2022-12-15T07:24:40.012Z,59.00
2022-12-15T07:27:06.362Z,59.07
2022-12-15T07:29:32.651Z,58.80
2022-12-15T07:32:01.145Z,59.23
2022-12-15T07:34:27.550Z,60.06
2022-12-15T07:36:55.047Z,60.24
2022-12-15T07:39:21.546Z,60.87
2022-12-15T07:41:48.089Z,61.71
2022-12-15T07:44:14.863Z,61.07
2022-12-15T07:46:41.333Z,60.42
2022-12-15T07:49:07.745Z,60.27
2022-12-15T07:51:34.206Z,60.75
2022-12-15T07:54:00.549Z,61.37
2022-12-15T07:56:26.888Z,61.24
2022-12-15T07:58:53.235Z,60.40
2022-12-15T08:01:19.813Z,59.92
2022-12-15T08:03:46.684Z,59.85
2022-12-15T08:06:14.144Z,59.58
2022-12-15T08:08:40.924Z,59.38
2022-12-15T08:11:11.761Z,59.61
2022-12-15T08:14:01.811Z,59.54
2022-12-15T08:16:25.378Z,59.43
2022-12-15T08:18:51.785Z,59.39
2022-12-15T08:21:18.506Z,60.04
2022-12-15T08:23:45.192Z,60.67
2022-12-15T08:26:12.803Z,60.37
2022-12-15T08:28:39.969Z,59.37
2022-12-15T08:31:10.696Z,59.95
2022-12-15T08:33:37.582Z,59.93
2022-12-15T08:36:06.236Z,60.80
2022-12-15T08:38:32.755Z,62.32
2022-12-15T08:41:06.119Z,61.25
2022-12-15T08:43:33.049Z,61.57
2022-12-15T08:46:00.483Z,61.03
2022-12-15T08:48:26.982Z,60.76
2022-12-15T08:50:55.069Z,61.06
2022-12-15T08:53:31.226Z,61.33
2022-12-15T08:56:02.257Z,62.43
2022-12-15T08:58:29.699Z,61.21
2022-12-15T09:01:00.137Z,60.34
2022-12-15T09:03:27.451Z,59.86
2022-12-15T09:05:53.817Z,59.20
2022-12-15T09:08:20.156Z,60.76
2022-12-15T09:10:46.484Z,61.06
2022-12-15T09:13:18.863Z,60.02
2022-12-15T09:16:08.820Z,59.58
2022-12-15T09:18:32.573Z,58.52
2022-12-15T09:21:03.209Z,58.43
2022-12-15T09:23:30.123Z,58.54
2022-12-15T09:26:00.499Z,58.35
2022-12-15T09:28:26.861Z,59.06
2022-12-15T09:30:53.337Z,58.69
2022-12-15T09:33:19.719Z,58.56
2022-12-15T09:35:52.526Z,58.89
2022-12-15T09:38:18.950Z,59.14
2022-12-15T09:40:45.359Z,58.88
2022-12-15T09:43:34.376Z,57.96
2022-12-15T09:46:04.222Z,57.25
2022-12-15T09:48:36.423Z,57.18
2022-12-15T09:51:04.394Z,57.65
2022-12-15T09:53:54.135Z,57.72
2022-12-15T09:56:23.584Z,57.47
2022-12-15T09:59:00.508Z,57.06
2022-12-15T10:01:33.589Z,57.08
2022-12-15T10:04:07.292Z,56.70
2022-12-15T10:06:37.597Z,57.23
2022-12-15T10:09:08.867Z,57.03
2022-12-15T10:11:43.854Z,56.84
2022-12-15T10:14:19.365Z,57.63
2022-12-15T10:17:06.367Z,57.49
2022-12-15T10:19:45.460Z,57.61
2022-12-15T10:22:19.897Z,58.09
2022-12-15T10:27:51.275Z,56.92
2022-12-15T10:30:17.738Z,57.67
2022-12-15T10:32:51.652Z,58.06
2022-12-15T10:35:29.280Z,59.04
2022-12-15T10:38:00.211Z,59.78
2022-12-15T10:40:41.835Z,59.93
2022-12-15T10:43:15.644Z,60.33
2022-12-15T10:45:42.575Z,59.25
2022-12-15T10:48:18.946Z,58.56
2022-12-15T10:50:45.337Z,58.91
2022-12-15T10:53:35.453Z,59.84
2022-12-15T10:56:02.002Z,60.95
2022-12-15T10:58:28.461Z,61.70
2022-12-15T11:01:09.111Z,61.08
2022-12-15T11:03:37.244Z,60.63
2022-12-15T11:06:09.986Z,60.87
2022-12-15T11:08:36.731Z,59.98
2022-12-15T11:11:25.997Z,60.53
2022-12-15T11:14:07.207Z,60.88
2022-12-15T11:16:33.560Z,61.20
2022-12-15T11:19:08.081Z,61.21
2022-12-15T11:21:42.002Z,62.11
2022-12-15T11:24:08.634Z,61.22
2022-12-15T11:26:49.230Z,61.63
2022-12-15T11:29:23.828Z,61.89
2022-12-15T11:31:51.163Z,61.96
2022-12-15T11:34:22.609Z,61.03
2022-12-15T11:36:49.252Z,60.85
2022-12-15T11:39:35.393Z,60.08
2022-12-15T11:42:01.850Z,60.14
2022-12-15T11:44:32.557Z,60.09
2022-12-15T11:47:19.154Z,59.97
2022-12-15T11:50:04.471Z,59.47
2022-12-15T11:52:42.968Z,59.45
2022-12-15T11:55:12.369Z,58.40
2022-12-15T11:57:45.180Z,57.77
2022-12-15T12:00:19.420Z,57.59
2022-12-15T12:02:55.563Z,57.22
2022-12-15T12:05:45.260Z,57.10
2022-12-15T12:08:36.084Z,56.71
2022-12-15T12:11:05.894Z,57.10
2022-12-15T12:13:52.500Z,57.02
2022-12-15T12:16:28.209Z,57.42
2022-12-15T12:19:02.334Z,57.88
2022-12-15T12:21:33.213Z,58.05
2022-12-15T12:24:08.983Z,57.63
2022-12-15T12:26:38.992Z,57.19
2022-12-15T12:29:11.845Z,56.53
2022-12-15T12:32:10.650Z,56.30
2022-12-15T12:35:31.089Z,56.35
2022-12-15T12:37:51.287Z,56.42
2022-12-15T12:40:35.828Z,56.48
2022-12-15T12:43:02.439Z,57.14
2022-12-15T12:45:31.011Z,56.32
2022-12-15T12:48:01.343Z,56.65
2022-12-15T12:50:29.476Z,56.60
2022-12-15T12:52:57.427Z,55.97
2022-12-15T12:55:24.264Z,55.61
2022-12-15T12:57:50.734Z,55.77
2022-12-15T13:00:21.278Z,56.04
2022-12-15T13:03:07.896Z,55.74
2022-12-15T13:05:36.144Z,55.62
2022-12-15T13:08:05.621Z,55.94
2022-12-15T13:10:33.456Z,55.67
2022-12-15T13:13:16.864Z,55.24
2022-12-15T13:15:45.686Z,55.29
2022-12-15T13:18:17.055Z,55.29
2022-12-15T13:20:44.554Z,55.03
2022-12-15T13:23:20.108Z,55.23
2022-12-15T13:25:56.026Z,56.06
2022-12-15T13:28:22.566Z,56.13
2022-12-15T13:31:07.708Z,56.64
2022-12-15T13:33:34.547Z,55.83
2022-12-15T13:36:01.274Z,56.16
2022-12-15T13:38:47.634Z,55.93
2022-12-15T13:41:23.850Z,55.97
2022-12-15T13:43:51.194Z,55.66
2022-12-15T13:46:24.683Z,56.77
2022-12-15T13:49:04.675Z,56.50
2022-12-15T13:51:31.146Z,56.80
2022-12-15T13:53:57.467Z,56.38
2022-12-15T13:56:37.760Z,55.92
2022-12-15T13:59:06.834Z,56.15
2022-12-15T14:01:33.840Z,56.02
2022-12-15T14:04:05.226Z,55.46
2022-12-15T14:06:35.748Z,55.32
2022-12-15T14:09:02.095Z,55.24
2022-12-15T14:11:51.981Z,55.89
2022-12-15T14:14:19.937Z,55.86
2022-12-15T14:16:46.931Z,55.87
2022-12-15T14:19:17.085Z,55.42
2022-12-15T14:21:54.210Z,54.99
2022-12-15T14:24:39.911Z,55.74
2022-12-15T14:27:06.917Z,55.78
2022-12-15T14:29:33.257Z,56.17
2022-12-15T14:32:00.401Z,55.99
2022-12-15T14:34:26.799Z,56.37
2022-12-15T14:36:54.998Z,56.48
2022-12-15T14:39:34.590Z,56.09
2022-12-15T14:42:01.920Z,55.85
2022-12-15T14:44:38.175Z,55.58
2022-12-15T14:47:06.860Z,55.70
2022-12-15T14:49:42.752Z,55.51
2022-12-15T14:52:19.070Z,55.15
2022-12-15T14:54:57.587Z,54.74
2022-12-15T14:57:25.926Z,54.73
2022-12-15T14:59:53.303Z,55.15
2022-12-15T15:02:24.945Z,55.15
2022-12-15T15:05:04.643Z,55.52
2022-12-15T15:07:35.298Z,55.47
2022-12-15T15:10:02.070Z,55.25
2022-12-15T15:12:43.533Z,55.00
2022-12-15T15:15:17.570Z,54.54
2022-12-15T15:17:48.775Z,54.60
2022-12-15T15:20:18.184Z,54.31
2022-12-15T15:22:45.665Z,54.33
2022-12-15T15:25:27.923Z,54.57
2022-12-15T15:28:03.403Z,54.67
2022-12-15T15:30:30.988Z,54.41
2022-12-15T15:32:58.371Z,55.00
2022-12-15T15:35:30.180Z,54.97
2022-12-15T15:38:02.335Z,54.73
2022-12-15T15:40:28.745Z,54.72
2022-12-15T15:42:55.571Z,54.48
2022-12-15T15:45:22.021Z,54.73
2022-12-15T15:47:50.098Z,54.57
2022-12-15T15:50:22.115Z,54.84
2022-12-15T15:52:48.541Z,54.47
2022-12-15T15:55:16.122Z,54.16
2022-12-15T15:57:42.513Z,54.24
2022-12-15T16:00:22.941Z,54.21
2022-12-15T16:02:49.391Z,54.51
2022-12-15T16:05:16.329Z,54.91
2022-12-15T16:07:43.897Z,54.72
2022-12-15T16:10:14.576Z,55.23
2022-12-15T16:12:46.680Z,55.35
2022-12-15T16:15:17.923Z,55.85
2022-12-15T16:17:44.616Z,55.48
2022-12-15T16:20:12.707Z,55.46
2022-12-15T16:22:40.066Z,56.08
2022-12-15T16:25:10.073Z,56.42
2022-12-15T16:27:36.631Z,56.45
2022-12-15T16:30:06.448Z,56.46
2022-12-15T16:32:33.055Z,56.12
2022-12-15T16:34:59.390Z,55.97
2022-12-15T16:37:27.455Z,55.44
2022-12-15T16:39:54.283Z,55.14
2022-12-15T16:42:20.974Z,55.25
2022-12-15T16:44:47.684Z,55.85
2022-12-15T16:47:14.151Z,55.71
2022-12-15T16:49:40.711Z,56.47
2022-12-15T16:52:12.020Z,56.26
2022-12-15T16:54:47.863Z,56.79
2022-12-15T16:57:14.798Z,56.53
2022-12-15T16:59:41.969Z,57.13
2022-12-15T17:02:29.204Z,57.30
2022-12-15T17:04:56.072Z,57.44
2022-12-15T17:07:24.101Z,57.76
2022-12-15T17:09:50.950Z,57.88
2022-12-15T17:12:18.675Z,57.92
2022-12-15T17:14:45.563Z,57.77
2022-12-15T17:17:16.696Z,57.59
2022-12-15T17:19:58.034Z,56.75
2022-12-15T17:22:30.500Z,56.83
2022-12-15T17:24:57.070Z,57.24
2022-12-15T17:27:27.745Z,57.33
2022-12-15T17:29:55.412Z,58.21
2022-12-15T17:32:22.012Z,57.91
2022-12-15T17:34:48.537Z,58.02
2022-12-15T17:37:15.101Z,58.17
2022-12-15T17:39:44.702Z,58.11
2022-12-15T17:42:16.570Z,58.11
2022-12-15T17:44:46.534Z,57.91
2022-12-15T17:47:13.681Z,57.73
2022-12-15T17:49:40.234Z,57.74
2022-12-15T17:52:11.581Z,57.57
2022-12-15T17:54:38.306Z,57.79
2022-12-15T17:57:04.707Z,58.19
2022-12-15T17:59:32.198Z,58.36
2022-12-15T18:01:58.714Z,58.35
2022-12-15T18:04:25.933Z,58.52
2022-12-15T18:06:58.040Z,58.71
2022-12-15T18:09:27.771Z,58.68
2022-12-15T18:11:54.155Z,58.23
2022-12-15T18:14:23.061Z,57.56
2022-12-15T18:16:49.822Z,57.34
2022-12-15T18:19:17.096Z,57.24
2022-12-15T18:21:44.288Z,57.07
2022-12-15T18:24:12.546Z,57.11
2022-12-15T18:26:40.634Z,57.20
2022-12-15T18:29:14.809Z,56.94
2022-12-15T18:31:42.985Z,57.07
2022-12-15T18:34:14.069Z,57.45
2022-12-15T18:36:40.669Z,57.51
2022-12-15T18:39:18.185Z,57.14
2022-12-15T18:41:45.146Z,57.65
2022-12-15T18:44:31.469Z,57.52
2022-12-15T18:46:57.892Z,57.50
2022-12-15T18:49:24.540Z,57.70
2022-12-15T18:51:51.748Z,57.52
2022-12-15T18:54:20.264Z,57.46
2022-12-15T18:56:47.251Z,57.19
2022-12-15T18:59:15.700Z,57.16
2022-12-15T19:01:43.137Z,57.15
2022-12-15T19:04:09.798Z,56.76
2022-12-15T19:06:36.230Z,56.42
2022-12-15T19:09:03.625Z,56.52
2022-12-15T19:11:33.924Z,56.47
2022-12-15T19:14:01.716Z,56.21
2022-12-15T19:16:48.679Z,56.83
2022-12-15T19:19:33.632Z,56.89
2022-12-15T19:22:00.249Z,56.57
2022-12-15T19:24:55.407Z,56.01
2022-12-15T19:27:26.805Z,56.39
2022-12-15T19:29:54.724Z,55.82
2022-12-15T19:32:23.071Z,55.75
2022-12-15T19:35:04.436Z,55.64
2022-12-15T19:37:31.653Z,55.76
2022-12-15T19:39:59.500Z,56.63
2022-12-15T19:42:30.409Z,56.09
2022-12-15T19:44:57.445Z,55.80
2022-12-15T19:47:24.471Z,56.18
2022-12-15T19:49:52.139Z,56.84
2022-12-15T19:52:23.310Z,56.64
2022-12-15T19:54:50.316Z,57.07
2022-12-15T19:57:19.081Z,57.06
2022-12-15T19:59:47.127Z,56.50
2022-12-15T20:02:17.947Z,56.14
2022-12-15T20:04:45.761Z,56.19
2022-12-15T20:07:27.342Z,55.86
2022-12-15T20:09:56.073Z,55.50
2022-12-15T20:12:24.109Z,55.92
2022-12-15T20:14:52.730Z,55.81
2022-12-15T20:17:20.353Z,56.00
2022-12-15T20:19:47.932Z,55.85
2022-12-15T20:22:19.742Z,55.78
2022-12-15T20:24:48.320Z,55.93
2022-12-15T20:27:16.275Z,55.62
2022-12-15T20:29:43.038Z,55.67
2022-12-15T20:32:17.270Z,55.74
2022-12-15T20:34:43.749Z,55.89
2022-12-15T20:37:16.469Z,55.59
2022-12-15T20:39:45.850Z,55.86
2022-12-15T20:42:18.021Z,55.89
2022-12-15T20:44:44.924Z,55.82
2022-12-15T20:47:31.787Z,55.46
2022-12-15T20:49:58.459Z,55.68
2022-12-15T20:52:26.386Z,55.85
2022-12-15T20:54:53.806Z,55.68
2022-12-15T20:57:20.430Z,55.55
2022-12-15T20:59:46.967Z,55.79
2022-12-15T21:02:21.397Z,55.64
2022-12-15T21:04:49.000Z,55.78
2022-12-15T21:07:15.394Z,55.82
2022-12-15T21:09:41.947Z,55.65
2022-12-15T21:12:19.749Z,55.81
2022-12-15T21:14:46.404Z,56.04
2022-12-15T21:17:21.401Z,56.43
2022-12-15T21:19:51.340Z,56.58
2022-12-15T21:22:28.315Z,56.38
2022-12-15T21:25:00.898Z,56.16
2022-12-15T21:27:27.804Z,56.17
2022-12-15T21:29:57.528Z,56.00
2022-12-15T21:32:27.918Z,56.42
2022-12-15T21:34:54.814Z,56.73
2022-12-15T21:37:26.845Z,56.46
2022-12-15T21:39:53.538Z,56.63
2022-12-15T21:42:21.464Z,56.89
2022-12-15T21:44:48.336Z,57.10
2022-12-15T21:47:52.141Z,57.37
2022-12-15T21:50:19.325Z,57.31
2022-12-15T21:52:46.586Z,56.84
2022-12-15T21:55:16.473Z,56.97
2022-12-15T21:57:42.864Z,56.48
2022-12-15T22:00:10.603Z,57.13
2022-12-15T22:02:37.343Z,57.31
2022-12-15T22:05:04.943Z,57.54
2022-12-15T22:07:31.426Z,57.83
2022-12-15T22:09:58.449Z,56.71
2022-12-15T22:12:25.030Z,57.32
2022-12-15T22:14:52.278Z,57.07
2022-12-15T22:17:20.391Z,58.00
2022-12-15T22:19:47.594Z,58.51
2022-12-15T22:22:14.478Z,58.12
2022-12-15T22:24:40.919Z,58.25
2022-12-15T22:27:17.836Z,58.42
2022-12-15T22:29:44.414Z,58.59
2022-12-15T22:32:12.915Z,58.57
2022-12-15T22:34:40.018Z,58.44
2022-12-15T22:37:06.863Z,58.14
2022-12-15T22:39:33.759Z,58.16
2022-12-15T22:42:03.171Z,57.91
2022-12-15T22:44:36.211Z,57.81
2022-12-15T22:47:03.915Z,57.94
2022-12-15T22:49:32.382Z,57.88
2022-12-15T22:51:59.053Z,57.83
2022-12-15T22:54:26.580Z,57.92
2022-12-15T22:56:59.518Z,58.10
2022-12-15T22:59:29.789Z,58.11
2022-12-15T23:01:56.926Z,58.06
2022-12-15T23:04:24.639Z,57.92
2022-12-15T23:06:51.226Z,58.04
2022-12-15T23:09:18.850Z,58.21
2022-12-15T23:11:45.507Z,58.30
2022-12-15T23:14:16.385Z,57.68
2022-12-15T23:16:43.865Z,56.88
2022-12-15T23:19:23.682Z,56.89
2022-12-15T23:21:51.078Z,56.81
2022-12-15T23:24:18.418Z,57.86
2022-12-15T23:26:45.010Z,58.25
2022-12-15T23:29:11.618Z,58.03
2022-12-15T23:31:38.405Z,58.13
2022-12-15T23:34:05.454Z,58.11
2022-12-15T23:36:32.379Z,58.04
2022-12-15T23:38:58.920Z,57.96
2022-12-15T23:41:25.797Z,58.16
2022-12-15T23:43:53.834Z,58.33
2022-12-15T23:46:22.563Z,57.80
2022-12-15T23:48:49.341Z,57.97
2022-12-15T23:51:19.453Z,58.29
2022-12-15T23:53:46.887Z,58.57
2022-12-15T23:56:16.687Z,58.31
2022-12-15T23:58:45.712Z,58.14
